Time;durP1;ratioP1;P1;durP2;ratioP2;P2;SDS_P1;SDS_P2;PMS_P1;PMS_P2;Temp;Humidity;BMP_temperature;BMP_pressure;BME280_temperature;BME280_humidity;BME280_pressure;Samples;Min_cycle;Max_cycle;Signal;HPM_P1;HPM_P2
2022/08/16 00:00:43;;;;;;;13.15;11.73;;;;;;;21.12;74.60;99375.77;2127898;81;33090;-65
2022/08/16 00:03:45;;;;;;;15.83;11.38;;;;;;;21.10;74.71;99369.14;2152499;80;29353;-70
2022/08/16 00:06:46;;;;;;;17.45;11.18;;;;;;;21.11;74.79;99371.34;2167419;81;27811;-69
2022/08/16 00:09:48;;;;;;;13.58;11.97;;;;;;;21.10;74.86;99377.31;2148429;80;28673;-70
2022/08/16 00:12:50;;;;;;;13.18;11.73;;;;;;;21.09;74.93;99376.13;2165868;82;31047;-70
2022/08/16 00:15:51;;;;;;;14.65;12.15;;;;;;;21.07;74.92;99379.00;2168645;80;33021;-71
2022/08/16 00:18:53;;;;;;;14.80;12.47;;;;;;;21.04;75.04;99369.80;2142248;81;29332;-70
2022/08/16 00:21:54;;;;;;;14.98;12.40;;;;;;;21.03;75.06;99374.91;2147791;81;27854;-72
2022/08/16 00:24:56;;;;;;;13.55;12.15;;;;;;;21.00;75.12;99381.20;2132419;82;29403;-71
2022/08/16 00:27:57;;;;;;;14.38;12.20;;;;;;;20.97;75.23;99373.36;2092732;82;31122;-67
2022/08/16 00:30:58;;;;;;;13.40;11.48;;;;;;;20.92;75.27;99372.51;2133021;82;33020;-70
2022/08/16 00:34:00;;;;;;;13.72;12.00;;;;;;;20.88;75.36;99378.80;2121686;82;29448;-71
2022/08/16 00:37:02;;;;;;;16.20;13.32;;;;;;;20.83;75.40;99383.05;2127301;83;27638;-70
2022/08/16 00:40:06;;;;;;;12.33;11.03;;;;;;;20.78;75.51;99375.34;2115769;83;28730;-72
2022/08/16 00:43:14;;;;;;;;;;;;;;;20.72;75.51;99380.08;2133369;83;31032;-67
2022/08/16 00:46:34;;;;;;;14.18;12.68;;;;;;;20.68;75.68;99377.34;2109549;83;33009;-72
2022/08/16 00:49:35;;;;;;;16.35;11.05;;;;;;;20.59;75.71;99373.23;2089066;80;29385;-70
2022/08/16 00:52:39;;;;;;;15.13;12.80;;;;;;;20.53;75.72;99375.73;2136433;82;27592;-71
2022/08/16 00:55:46;;;;;;;15.15;13.18;;;;;;;20.45;75.78;99377.91;2166748;81;29554;-65
2022/08/16 00:58:47;;;;;;;15.78;12.47;;;;;;;20.41;75.99;99389.64;2159990;81;31063;-65
2022/08/16 01:01:49;;;;;;;14.30;12.37;;;;;;;20.35;76.22;99393.03;2162162;81;32964;-69
2022/08/16 01:04:51;;;;;;;15.65;13.08;;;;;;;20.30;76.20;99398.09;2170062;82;29345;-71
2022/08/16 01:07:53;;;;;;;18.40;12.80;;;;;;;20.23;76.31;99401.97;2136387;81;27693;-69
2022/08/16 01:10:56;;;;;;;14.00;12.53;;;;;;;20.16;76.36;99407.20;2136169;81;28650;-72
2022/08/16 01:14:06;;;;;;;17.48;13.45;;;;;;;20.11;76.43;99409.53;2161268;80;31853;-73
2022/08/16 01:17:08;;;;;;;16.77;11.75;;;;;;;20.04;76.64;99402.53;2160430;82;33859;-73
2022/08/16 01:20:11;;;;;;;14.85;12.55;;;;;;;19.98;76.81;99405.04;2124014;81;29479;-73
2022/08/16 01:23:33;;;;;;;20.15;14.30;;;;;;;19.90;76.86;99401.75;2148134;81;27686;-73
2022/08/16 01:26:34;;;;;;;18.35;13.45;;;;;;;19.85;77.05;99410.85;2116748;82;29441;-70
2022/08/16 01:29:44;;;;;;;15.30;13.70;;;;;;;19.79;77.28;99407.39;2118365;83;31052;-69
2022/08/16 01:32:46;;;;;;;16.87;12.75;;;;;;;19.73;77.29;99411.60;2129162;83;33583;-71
2022/08/16 01:35:58;;;;;;;17.35;13.08;;;;;;;19.68;77.33;99409.88;2131909;82;29373;-68
2022/08/16 01:38:59;;;;;;;15.45;13.30;;;;;;;19.62;77.37;99409.98;2118858;82;27681;-70
2022/08/16 01:42:03;;;;;;;16.62;13.05;;;;;;;19.56;77.48;99403.84;2104088;83;28729;-70
2022/08/16 01:45:05;;;;;;;19.10;12.83;;;;;;;19.50;77.57;99395.81;2111464;83;31664;-70
2022/08/16 01:48:07;;;;;;;13.85;12.35;;;;;;;19.46;77.60;99401.69;2132331;83;33024;-71
2022/08/16 01:51:08;;;;;;;16.67;13.00;;;;;;;19.40;77.67;99401.33;2111847;82;29370;-65
2022/08/16 01:54:11;;;;;;;18.10;12.82;;;;;;;19.34;77.72;99401.94;2135458;80;27934;-65
2022/08/16 01:57:12;;;;;;;16.73;12.93;;;;;;;19.30;77.89;99410.55;2154575;80;28680;-69
2022/08/16 02:00:15;;;;;;;14.43;12.93;;;;;;;19.26;77.95;99407.30;2137793;81;31059;-69
2022/08/16 02:03:16;;;;;;;13.22;11.83;;;;;;;19.21;78.03;99417.25;2151402;80;33647;-69
2022/08/16 02:06:18;;;;;;;17.75;13.43;;;;;;;19.16;78.07;99416.88;2156949;81;29445;-70
2022/08/16 02:09:22;;;;;;;15.63;13.72;;;;;;;19.11;78.33;99415.95;2162917;81;27557;-65
2022/08/16 02:12:23;;;;;;;17.57;13.48;;;;;;;19.09;78.45;99416.64;2167898;82;28684;-69
2022/08/16 02:15:27;;;;;;;13.65;11.90;;;;;;;19.07;78.67;99419.14;2146321;81;31031;-66
2022/08/16 02:18:28;;;;;;;17.90;13.15;;;;;;;19.03;78.67;99413.17;2144452;81;33635;-70
2022/08/16 02:21:30;;;;;;;13.85;12.35;;;;;;;18.98;78.63;99420.42;2151612;80;29394;-68
2022/08/16 02:24:32;;;;;;;14.15;12.65;;;;;;;18.94;78.66;99432.58;2105790;83;27853;-68
2022/08/16 02:28:42;;;;;;;15.03;12.73;;;;;;;18.93;78.77;99431.36;2231740;79;27646;-66
2022/08/16 02:31:47;;;;;;;15.05;12.73;;;;;;;18.85;78.85;99431.24;2179731;80;27918;-66
2022/08/16 02:34:53;;;;;;;17.82;13.50;;;;;;;18.81;78.95;99433.41;2178462;81;27959;-65
2022/08/16 02:38:05;;;;;;;16.67;12.65;;;;;;;18.78;79.09;99429.64;2178535;81;31032;-65
2022/08/16 02:41:12;;;;;;;13.48;12.03;;;;;;;18.73;79.13;99426.52;2175318;81;33019;-65
2022/08/16 02:44:17;;;;;;;14.55;12.95;;;;;;;18.68;79.18;99425.12;2176103;81;28472;-66
2022/08/16 02:47:22;;;;;;;;;;;;;;;18.64;79.21;99426.42;2181198;81;27854;-65
2022/08/16 02:50:27;;;;;;;14.05;12.10;;;;;;;18.60;79.37;99424.17;2175972;81;32423;-65
2022/08/16 02:53:37;;;;;;;14.13;12.50;;;;;;;18.55;79.33;99424.59;2176993;81;31074;-66
2022/08/16 02:56:41;;;;;;;14.80;12.23;;;;;;;18.51;79.51;99420.50;2175624;81;32966;-66
2022/08/16 02:59:47;;;;;;;15.63;12.73;;;;;;;18.48;79.62;99421.63;2176198;81;28722;-66
2022/08/16 03:02:56;;;;;;;14.10;12.10;;;;;;;18.44;79.67;99425.67;2175496;81;27987;-66
2022/08/16 03:06:00;;;;;;;16.55;13.55;;;;;;;;;;2175804;81;28644;-66
2022/08/16 03:09:08;;;;;;;15.40;11.95;;;;;;;18.36;79.86;99424.19;2176620;81;31794;-65
2022/08/16 03:12:14;;;;;;;14.28;12.33;;;;;;;18.21;79.78;99412.47;2174574;81;32965;-66
2022/08/16 03:15:20;;;;;;;14.68;12.90;;;;;;;18.29;79.88;99429.34;2175294;81;28886;-67
2022/08/16 03:18:25;;;;;;;16.60;13.68;;;;;;;18.25;79.94;99429.80;2175586;81;27723;-65
2022/08/16 03:21:32;;;;;;;16.05;13.13;;;;;;;18.22;80.08;99434.51;2175026;81;28758;-65
2022/08/16 03:24:42;;;;;;;14.85;12.25;;;;;;;18.18;80.11;99437.66;2180110;81;31033;-65
2022/08/16 03:27:52;;;;;;;14.47;11.88;;;;;;;18.16;80.17;99441.86;2174925;81;33044;-65
2022/08/16 03:31:02;;;;;;;13.48;11.75;;;;;;;18.14;80.28;99433.53;2156338;81;28667;-65
2022/08/16 03:34:08;;;;;;;17.80;11.80;;;;;;;18.12;80.35;99443.15;2175524;81;27844;-65
2022/08/16 03:37:14;;;;;;;14.15;11.90;;;;;;;18.11;80.48;99453.67;2174578;81;28687;-65
2022/08/16 03:40:18;;;;;;;16.75;14.70;;;;;;;18.09;80.51;99461.56;2155623;81;31070;-64
2022/08/16 03:43:23;;;;;;;15.53;12.53;;;;;;;18.07;80.88;99464.44;2174252;81;32973;-64
2022/08/16 03:46:30;;;;;;;15.80;14.18;;;;;;;18.06;80.96;99466.27;2174256;81;28872;-65
2022/08/16 03:49:35;;;;;;;17.17;13.70;;;;;;;18.05;80.96;99467.27;2174091;81;27981;-65
2022/08/16 03:52:41;;;;;;;15.95;12.95;;;;;;;18.04;81.06;99464.20;2174462;81;28646;-65
2022/08/16 03:55:52;;;;;;;19.20;13.95;;;;;;;18.05;81.08;99468.63;2174783;81;31033;-66
2022/08/16 03:58:56;;;;;;;17.48;13.30;;;;;;;18.05;81.39;99474.56;2175363;81;32973;-65
2022/08/16 04:02:00;;;;;;;;;;;;;;;18.08;81.47;99472.92;2177272;80;28765;-65
2022/08/16 04:05:12;;;;;;;16.95;13.03;;;;;;;18.10;81.55;99482.25;2156362;81;27913;-65
2022/08/16 04:08:23;;;;;;;18.65;14.10;;;;;;;18.09;81.54;99481.41;2175087;81;29068;-66
2022/08/16 04:11:28;;;;;;;19.07;14.53;;;;;;;18.12;81.63;99488.39;2175463;81;30997;-65
2022/08/16 04:14:35;;;;;;;16.20;14.00;;;;;;;18.13;81.89;99486.88;2175393;81;32970;-65
2022/08/16 04:17:40;;;;;;;17.17;14.10;;;;;;;18.15;81.91;99488.94;2175489;81;28895;-65
2022/08/16 04:20:46;;;;;;;19.45;14.87;;;;;;;18.18;82.02;99495.44;2156544;81;27992;-65
2022/08/16 04:23:52;;;;;;;15.90;13.03;;;;;;;18.22;82.09;99495.98;2175426;81;28812;-65
2022/08/16 04:26:57;;;;;;;15.72;13.58;;;;;;;18.27;82.10;99497.78;2176499;81;31228;-65
2022/08/16 04:30:11;;;;;;;15.72;13.60;;;;;;;18.32;82.17;99508.17;2181971;81;32994;-65
2022/08/16 04:33:22;;;;;;;19.98;14.35;;;;;;;18.36;82.22;99509.60;2182026;81;28848;-65
2022/08/16 04:36:27;;;;;;;16.87;13.10;;;;;;;18.43;82.34;99516.65;2182444;80;27753;-65
2022/08/16 04:39:33;;;;;;;18.30;14.40;;;;;;;18.48;82.36;99521.14;2182432;80;28640;-65
2022/08/16 04:42:44;;;;;;;20.37;13.65;;;;;;;18.57;82.44;99516.69;2182332;80;30961;-65
2022/08/16 04:45:49;;;;;;;16.62;14.23;;;;;;;18.65;82.51;99522.22;2182070;81;33221;-65
2022/08/16 04:48:56;;;;;;;17.85;13.75;;;;;;;18.73;82.57;99526.42;2182385;80;28711;-65
2022/08/16 04:52:02;;;;;;;15.68;13.93;;;;;;;18.85;82.52;99528.94;2182573;81;27780;-66
2022/08/16 04:55:18;;;;;;;16.48;13.25;;;;;;;18.96;82.65;99525.58;2182005;81;28719;-65
2022/08/16 04:58:23;;;;;;;16.07;14.13;;;;;;;19.12;82.77;99521.35;2182481;81;31081;-65
2022/08/16 05:01:30;;;;;;;19.12;14.55;;;;;;;19.46;83.12;99523.44;2182355;81;34014;-65
2022/08/16 05:04:40;;;;;;;16.25;13.25;;;;;;;19.87;83.20;99525.23;2182437;81;28716;-66
2022/08/16 05:07:42;;;;;;;15.65;13.90;;;;;;;20.26;82.59;99524.05;2185680;80;28886;-67
2022/08/16 05:10:47;;;;;;;18.00;12.40;;;;;;;20.62;81.95;99525.28;2185494;81;28690;-65
2022/08/16 05:14:01;;;;;;;13.95;11.78;;;;;;;20.93;81.49;99523.97;2181754;80;31036;-66
2022/08/16 05:17:11;;;;;;;17.17;12.33;;;;;;;21.21;81.12;99527.81;2181977;81;33677;-66
2022/08/16 05:20:19;;;;;;;17.65;12.47;;;;;;;21.50;80.77;99521.12;2182177;81;28809;-66
2022/08/16 05:23:27;;;;;;;17.82;12.18;;;;;;;21.75;80.22;99523.41;2182583;81;27808;-66
2022/08/16 05:26:38;;;;;;;20.68;12.82;;;;;;;21.98;79.87;99524.97;2182147;80;29108;-66
2022/08/16 05:29:44;;;;;;;14.23;12.50;;;;;;;22.20;79.43;99522.56;2178614;80;31040;-66
2022/08/16 05:32:46;;;;;;;16.90;12.47;;;;;;;22.40;78.77;99527.66;2181846;81;32996;-66
2022/08/16 05:35:58;;;;;;;15.63;12.30;;;;;;;22.59;78.50;99525.09;2178778;81;28765;-66
2022/08/16 05:39:16;;;;;;;17.12;11.60;;;;;;;22.77;78.09;99530.37;2178963;81;27958;-66
2022/08/16 05:42:24;;;;;;;;;;;;;;;22.99;77.76;99536.95;2181865;81;28661;-66
2022/08/16 05:45:30;;;;;;;16.50;11.28;;;;;;;23.17;77.21;99535.33;2178702;81;30813;-66
2022/08/16 05:48:34;;;;;;;15.00;11.38;;;;;;;23.32;76.88;99539.58;2179215;81;32958;-66
2022/08/16 05:51:42;;;;;;;22.55;12.65;;;;;;;23.46;76.57;99543.95;2179276;81;28715;-66
2022/08/16 05:54:51;;;;;;;18.32;12.13;;;;;;;23.56;75.93;99545.96;2178800;81;27762;-66
2022/08/16 05:57:59;;;;;;;16.85;11.75;;;;;;;23.65;75.76;99549.50;2178714;81;28697;-66
2022/08/16 06:01:11;;;;;;;17.30;11.93;;;;;;;23.76;75.24;99552.31;2162366;81;31400;-66
2022/08/16 06:04:22;;;;;;;15.13;10.63;;;;;;;23.87;74.92;99547.81;2178571;81;33018;-65
2022/08/16 06:07:28;;;;;;;14.38;11.25;;;;;;;24.07;74.97;99544.63;2179109;81;28678;-66
2022/08/16 06:10:31;;;;;;;15.68;10.88;;;;;;;24.30;74.43;99556.05;2182272;81;27863;-66
2022/08/16 06:13:36;;;;;;;17.50;10.60;;;;;;;24.56;74.05;99552.41;2181778;81;28724;-66
2022/08/16 06:16:44;;;;;;;12.37;10.88;;;;;;;24.84;73.71;99549.56;2162381;81;31438;-66
2022/08/16 06:19:47;;;;;;;13.60;10.15;;;;;;;25.12;73.35;99545.65;2181988;81;32940;-66
2022/08/16 06:22:55;;;;;;;18.00;10.78;;;;;;;25.44;73.18;99547.67;2182086;81;28715;-66
2022/08/16 06:26:02;;;;;;;16.60;10.55;;;;;;;25.79;72.34;99548.40;2179131;81;27803;-66
2022/08/16 06:29:06;;;;;;;13.83;9.83;;;;;;;26.21;71.87;99550.01;2177365;79;28704;-66
2022/08/16 06:32:13;;;;;;;12.10;8.98;;;;;;;26.74;71.30;99555.58;2175274;81;31077;-67
2022/08/16 06:35:18;;;;;;;12.82;9.83;;;;;;;27.28;69.98;99553.50;2175405;81;33616;-66
2022/08/16 06:38:21;;;;;;;13.53;9.33;;;;;;;27.74;67.96;99556.66;2178368;81;28717;-65
2022/08/16 06:41:27;;;;;;;12.23;8.43;;;;;;;28.20;67.22;99561.47;2178338;81;27728;-66
2022/08/16 06:44:36;;;;;;;9.83;8.75;;;;;;;28.71;66.13;99574.80;2175126;81;28748;-66
2022/08/16 06:47:38;;;;;;;12.23;7.87;;;;;;;29.17;64.16;99568.93;2178379;81;31011;-66
2022/08/16 06:50:48;;;;;;;8.25;7.45;;;;;;;29.55;63.16;99566.78;2178015;81;33056;-67
2022/08/16 06:53:50;;;;;;;11.55;8.30;;;;;;;29.94;62.10;99566.27;2178478;81;28770;-68
2022/08/16 06:56:52;;;;;;;11.38;8.00;;;;;;;30.28;60.74;99563.31;2178461;81;27693;-66
2022/08/16 06:59:54;;;;;;;11.08;8.15;;;;;;;30.69;60.58;99572.98;2178427;81;28665;-67
2022/08/16 07:03:03;;;;;;;13.68;8.03;;;;;;;31.03;59.04;99573.49;2178357;81;30997;-67
2022/08/16 07:06:14;;;;;;;8.55;7.67;;;;;;;31.26;58.10;99568.38;2174889;81;29861;-67
2022/08/16 07:09:16;;;;;;;8.95;8.08;;;;;;;31.58;57.69;99575.12;2178440;81;28711;-67
2022/08/16 07:12:18;;;;;;;11.55;7.67;;;;;;;31.89;56.87;99569.08;2178491;81;27771;-68
2022/08/16 07:15:20;;;;;;;11.05;7.75;;;;;;;32.20;55.98;99579.07;2178590;81;28705;-68
2022/08/16 07:18:22;;;;;;;9.58;7.60;;;;;;;32.43;55.46;99579.69;2178543;81;31022;-69
2022/08/16 07:21:25;;;;;;;9.90;8.23;;;;;;;32.69;54.67;99581.69;2178167;81;32964;-68
2022/08/16 07:24:30;;;;;;;10.32;7.87;;;;;;;32.78;52.76;99572.47;2178607;81;28717;-68
2022/08/16 07:27:33;;;;;;;9.35;8.25;;;;;;;32.82;53.06;99577.05;2178520;81;27672;-68
2022/08/16 07:30:37;;;;;;;8.33;7.53;;;;;;;32.97;52.20;99579.31;2178518;81;28711;-67
2022/08/16 07:33:40;;;;;;;9.25;7.83;;;;;;;33.13;52.05;99570.25;2178608;81;31048;-68
2022/08/16 07:36:44;;;;;;;8.80;7.83;;;;;;;33.15;51.15;99577.79;2178637;81;32976;-68
2022/08/16 07:39:45;;;;;;;8.08;7.35;;;;;;;33.29;50.37;99577.52;2178641;81;37456;-68
2022/08/16 07:42:48;;;;;;;8.35;7.50;;;;;;;33.33;50.05;99574.56;2178560;81;27683;-67
2022/08/16 07:45:51;;;;;;;7.85;6.90;;;;;;;33.36;49.30;99574.64;2178379;81;28742;-65
2022/08/16 07:48:53;;;;;;;7.50;6.78;;;;;;;33.33;48.69;99575.95;2178498;81;31118;-68
2022/08/16 07:51:55;;;;;;;7.95;6.45;;;;;;;33.47;48.39;99587.67;2110361;84;33024;-68
2022/08/16 07:54:57;;;;;;;9.98;6.83;;;;;;;33.48;47.50;99577.69;2110853;84;29035;-67
2022/08/16 07:58:00;;;;;;;9.03;7.03;;;;;;;33.53;46.78;99580.28;2110960;84;27729;-67
2022/08/16 08:01:05;;;;;;;7.90;7.12;;;;;;;33.52;46.77;99579.42;2111047;84;28668;-66
2022/08/16 08:04:11;;;;;;;8.85;6.62;;;;;;;33.61;46.85;99584.05;2110790;84;31024;-66
2022/08/16 08:07:11;;;;;;;7.80;6.97;;;;;;;33.67;46.42;99584.46;2110375;84;33195;-66
2022/08/16 08:10:13;;;;;;;8.30;7.50;;;;;;;33.72;45.55;99587.88;2110577;84;29075;-66
2022/08/16 08:13:15;;;;;;;7.62;6.87;;;;;;;33.71;45.39;99585.66;2110796;84;27769;-66
2022/08/16 08:16:20;;;;;;;7.97;6.33;;;;;;;33.73;45.14;99582.09;2087121;84;28640;-66
2022/08/16 08:19:22;;;;;;;7.40;6.65;;;;;;;33.75;45.29;99592.42;2110815;84;31035;-66
2022/08/16 08:22:25;;;;;;;8.73;6.83;;;;;;;33.82;45.02;99589.48;2135100;81;33070;-66
2022/08/16 08:25:28;;;;;;;12.93;7.00;;;;;;;33.75;44.56;99593.81;2178293;81;29025;-66
2022/08/16 08:28:31;;;;;;;;;;;;;;;33.78;44.57;99595.23;2182764;81;27910;-66
2022/08/16 08:31:41;;;;;;;8.30;7.60;;;;;;;33.75;43.62;99601.28;2170207;81;28794;-66
2022/08/16 08:34:38;;;;;;;10.23;6.65;;;;;;;33.79;44.01;99603.88;2183933;80;31057;-66
2022/08/16 08:37:40;;;;;;;7.87;7.17;;;;;;;33.87;44.35;99607.63;2185252;81;32980;-66
2022/08/16 08:40:43;;;;;;;6.28;5.75;;;;;;;33.91;43.57;99609.42;2184944;80;29075;-65
2022/08/16 08:43:47;;;;;;;7.70;7.00;;;;;;;33.91;43.24;99602.48;2185604;80;27623;-66
2022/08/16 08:46:50;;;;;;;7.17;6.55;;;;;;;33.93;43.28;99611.38;2170370;81;29466;-66
2022/08/16 08:49:52;;;;;;;6.58;4.95;;;;;;;33.89;42.90;99610.21;2169808;81;31058;-66
2022/08/16 08:52:54;;;;;;;10.10;6.95;;;;;;;33.86;42.65;99610.11;2185142;80;33023;-65
2022/08/16 08:56:07;;;;;;;7.00;6.40;;;;;;;33.78;42.44;99614.69;2181197;80;29073;-68
2022/08/16 08:59:11;;;;;;;6.40;5.80;;;;;;;33.61;42.33;99614.60;2184996;80;27935;-66
2022/08/16 09:02:15;;;;;;;7.75;6.83;;;;;;;33.46;42.45;99614.58;2170348;81;28703;-66
2022/08/16 09:05:21;;;;;;;8.18;7.37;;;;;;;33.28;42.13;99602.20;2185245;80;31093;-66
2022/08/16 09:08:25;;;;;;;10.40;7.58;;;;;;;33.03;42.31;99608.88;2184658;80;33016;-66
2022/08/16 09:11:28;;;;;;;7.67;7.03;;;;;;;32.83;42.91;99605.92;2169931;81;28924;-67
2022/08/16 09:14:30;;;;;;;4.60;4.20;;;;;;;32.75;42.79;99615.11;2184499;81;27896;-67
2022/08/16 09:17:38;;;;;;;8.80;7.90;;;;;;;32.61;42.17;99614.48;2184671;80;28714;-67
2022/08/16 09:20:41;;;;;;;9.03;6.65;;;;;;;32.57;43.14;99621.06;2184977;81;31041;-67
2022/08/16 09:23:48;;;;;;;8.00;6.80;;;;;;;32.55;43.59;99616.29;2184507;80;33004;-66
2022/08/16 09:26:50;;;;;;;5.58;5.12;;;;;;;32.47;42.47;99614.70;2169987;81;29095;-67
2022/08/16 09:34:16;;;;;;;7.53;6.83;;;;;;;32.36;43.50;99617.75;2177794;81;27910;-67
2022/08/16 09:37:18;;;;;;;11.22;7.35;;;;;;;32.26;42.91;99625.81;2178221;81;31102;-68
2022/08/16 09:40:20;;;;;;;8.38;5.72;;;;;;;32.17;43.45;99619.72;2178220;81;33690;-68
2022/08/16 09:43:24;;;;;;;6.05;5.45;;;;;;;32.00;43.49;99626.48;2178287;81;29052;-67
2022/08/16 09:46:27;;;;;;;7.37;6.03;;;;;;;31.84;43.69;99618.27;2135673;81;27951;-68
2022/08/16 09:49:29;;;;;;;8.60;7.60;;;;;;;31.73;43.62;99617.68;2159189;81;28649;-69
2022/08/16 09:52:36;;;;;;;6.42;5.25;;;;;;;31.52;44.05;99613.72;2177862;81;31056;-76
2022/08/16 09:55:35;;;;;;;10.13;7.20;;;;;;;31.39;44.19;99613.05;2178033;81;32967;-70
2022/08/16 09:58:38;;;;;;;9.68;7.33;;;;;;;31.25;44.30;99614.59;2178129;81;29031;-68
2022/08/16 10:01:43;;;;;;;11.73;8.28;;;;;;;31.07;44.54;99616.75;2177780;81;27730;-69
2022/08/16 10:04:48;;;;;;;10.60;8.25;;;;;;;30.99;44.72;99622.05;2177474;81;28834;-71
2022/08/16 10:07:53;;;;;;;6.83;6.17;;;;;;;30.93;45.36;99614.68;2158496;81;31077;-70
2022/08/16 10:14:16;;;;;;;8.98;6.75;;;;;;;30.76;45.55;99618.02;2178067;80;29093;-73
2022/08/16 10:17:23;;;;;;;7.10;6.40;;;;;;;30.63;45.22;99619.49;2177670;81;27853;-73
2022/08/16 10:20:26;;;;;;;9.38;7.70;;;;;;;30.56;46.19;99619.55;2177521;81;28715;-72
2022/08/16 10:23:29;;;;;;;9.67;7.40;;;;;;;30.46;46.23;99619.19;2178226;81;31009;-70
2022/08/16 10:26:33;;;;;;;7.78;7.05;;;;;;;30.43;46.18;99626.53;2178162;81;32974;-67
2022/08/16 10:29:35;;;;;;;7.65;6.70;;;;;;;30.40;46.43;99627.84;2178697;81;29033;-67
2022/08/16 10:32:42;;;;;;;6.42;4.58;;;;;;;30.31;46.17;99627.27;2181506;80;27913;-71
2022/08/16 10:35:46;;;;;;;9.23;8.23;;;;;;;30.29;46.49;99624.39;2184665;81;28696;-72
2022/08/16 10:38:48;;;;;;;7.65;6.85;;;;;;;30.22;46.83;99626.37;2184947;80;31031;-73
2022/08/16 10:41:50;;;;;;;5.83;5.33;;;;;;;30.20;47.07;99622.98;2185109;80;32956;-67
2022/08/16 10:44:59;;;;;;;9.53;7.83;;;;;;;30.20;46.85;99619.66;2185163;81;29062;-70
2022/08/16 10:48:09;;;;;;;7.62;6.83;;;;;;;30.16;46.98;99617.06;2181727;81;27989;-66
2022/08/16 10:51:20;;;;;;;8.93;7.83;;;;;;;30.09;46.84;99625.39;2181567;80;28693;-66
2022/08/16 10:54:26;;;;;;;8.23;7.30;;;;;;;30.05;47.15;99626.89;2181768;81;31444;-65
2022/08/16 10:57:38;;;;;;;10.15;7.97;;;;;;;30.01;46.81;99617.34;2181789;81;32958;-68
2022/08/16 11:00:45;;;;;;;6.90;6.28;;;;;;;29.96;46.87;99617.16;2181459;80;27955;-67
2022/08/16 11:03:55;;;;;;;9.63;8.10;;;;;;;29.93;47.13;99612.06;2166737;81;27786;-67
2022/08/16 11:07:04;;;;;;;8.78;6.17;;;;;;;29.89;47.01;99609.42;2181972;80;29106;-67
2022/08/16 11:10:09;;;;;;;12.07;8.95;;;;;;;29.86;47.39;99606.58;2185432;80;31079;-66
2022/08/16 11:13:24;;;;;;;7.58;6.80;;;;;;;29.83;47.48;99611.98;2181991;80;32954;-68
2022/08/16 11:16:29;;;;;;;8.88;8.05;;;;;;;29.81;47.72;99607.77;2181958;80;29676;-75
2022/08/16 11:19:34;;;;;;;9.05;8.15;;;;;;;29.82;48.21;99609.46;2185422;80;27809;-69
2022/08/16 11:22:37;;;;;;;7.33;6.75;;;;;;;29.84;48.19;99601.80;2185254;81;28814;-68
2022/08/16 11:25:41;;;;;;;6.65;5.72;;;;;;;29.88;47.90;99610.48;2185204;80;31046;-68
2022/08/16 11:28:45;;;;;;;9.65;6.17;;;;;;;29.92;47.66;99614.52;2184659;81;33042;-67
2022/08/16 11:31:48;;;;;;;8.88;7.92;;;;;;;29.95;47.47;99615.45;2173221;81;36728;-68
2022/08/16 11:34:51;;;;;;;;;;;;;;;29.96;46.87;99613.01;2175281;81;27891;-69
2022/08/16 11:38:05;;;;;;;9.03;6.97;;;;;;;29.95;47.28;99612.18;2187577;81;28738;-69
2022/08/16 11:41:08;;;;;;;;;;;;;;;29.96;47.97;99620.78;2190119;80;30894;-68
2022/08/16 11:44:11;;;;;;;8.13;6.10;;;;;;;29.94;47.24;99615.14;2172845;81;33014;-68
2022/08/16 11:47:15;;;;;;;8.68;7.75;;;;;;;29.90;47.57;99612.50;2187915;81;29097;-69
2022/08/16 11:50:17;;;;;;;8.50;7.70;;;;;;;29.86;47.34;99608.80;2173124;81;27875;-69
2022/08/16 11:53:22;;;;;;;8.80;7.58;;;;;;;29.85;47.70;99614.55;2172704;81;28861;-67
2022/08/16 11:56:25;;;;;;;8.55;7.65;;;;;;;29.87;47.90;99613.77;2172879;81;31050;-66
2022/08/16 11:59:28;;;;;;;8.87;7.30;;;;;;;29.85;47.45;99607.09;2188677;80;33184;-65
2022/08/16 12:02:31;;;;;;;8.40;7.42;;;;;;;29.85;47.49;99604.88;2187906;81;29020;-68
2022/08/16 12:05:37;;;;;;;7.87;7.17;;;;;;;29.83;47.54;99611.98;2188145;80;27914;-69
2022/08/16 12:08:48;;;;;;;10.63;7.12;;;;;;;29.84;47.26;99610.09;2180126;81;28719;-68
2022/08/16 12:11:54;;;;;;;8.53;7.67;;;;;;;29.85;47.13;99611.79;2187754;80;28556;-67
2022/08/16 12:14:57;;;;;;;7.95;6.97;;;;;;;29.80;46.81;99601.92;2188699;80;32960;-66
2022/08/16 12:18:02;;;;;;;7.10;6.40;;;;;;;29.80;47.17;99610.21;2188368;80;29079;-66
2022/08/16 12:21:07;;;;;;;6.97;6.25;;;;;;;29.78;46.77;99600.78;2188823;80;27806;-66
2022/08/16 12:24:10;;;;;;;7.53;6.83;;;;;;;29.73;46.59;99603.86;2172998;81;28630;-69
2022/08/16 12:27:13;;;;;;;5.55;5.05;;;;;;;29.67;46.57;99599.55;2188303;81;30966;-70
2022/08/16 12:30:20;;;;;;;9.35;7.15;;;;;;;29.66;46.46;99598.38;2184062;80;32796;-69
2022/08/16 12:33:23;;;;;;;9.00;6.95;;;;;;;29.64;46.21;99596.36;2177288;81;29980;-67
2022/08/16 12:36:27;;;;;;;7.78;7.00;;;;;;;29.65;46.10;99592.02;2159372;81;27863;-69
2022/08/16 12:39:30;;;;;;;10.45;7.78;;;;;;;29.64;46.00;99590.84;2178132;81;28691;-68
2022/08/16 12:42:35;;;;;;;9.85;6.25;;;;;;;29.64;45.96;99591.70;2159309;81;31021;-68
2022/08/16 12:45:43;;;;;;;6.70;6.00;;;;;;;29.62;45.42;99586.93;2159382;81;32966;-68
2022/08/16 12:48:58;;;;;;;6.40;5.87;;;;;;;29.63;46.17;99587.25;2177754;81;29071;-68
2022/08/16 12:52:01;;;;;;;9.93;7.10;;;;;;;29.64;46.35;99577.03;2158747;82;27939;-65
2022/08/16 12:55:07;;;;;;;7.55;6.80;;;;;;;29.63;45.88;99578.10;2158739;82;28708;-67
2022/08/16 12:58:11;;;;;;;9.00;7.08;;;;;;;29.62;45.25;99574.51;2158411;82;31048;-65
2022/08/16 13:01:14;;;;;;;10.78;6.78;;;;;;;29.63;45.47;99572.58;2158701;82;32975;-65
2022/08/16 13:04:17;;;;;;;6.07;4.33;;;;;;;29.66;45.97;99570.25;2158394;82;28915;-66
2022/08/16 13:07:19;;;;;;;7.40;6.70;;;;;;;29.69;46.09;99571.72;2158448;82;27958;-68
2022/08/16 13:10:22;;;;;;;4.67;4.25;;;;;;;29.70;46.08;99570.09;2158406;82;28683;-70
2022/08/16 13:13:25;;;;;;;7.30;6.60;;;;;;;29.70;45.79;99565.95;2158920;82;31024;-69
2022/08/16 13:16:27;;;;;;;7.50;6.80;;;;;;;29.70;45.42;99560.98;2168828;81;33039;-70
2022/08/16 13:19:30;;;;;;;7.65;6.95;;;;;;;29.71;45.78;99567.66;2178129;81;29235;-68
2022/08/16 13:22:34;;;;;;;11.53;7.10;;;;;;;29.74;45.68;99562.25;2178777;81;27962;-68
2022/08/16 13:25:39;;;;;;;8.15;7.17;;;;;;;29.75;45.30;99564.45;2178588;81;28656;-65
2022/08/16 13:28:41;;;;;;;8.63;5.60;;;;;;;29.72;45.34;99563.00;2178019;80;31727;-66
2022/08/16 13:31:44;;;;;;;8.43;6.92;;;;;;;29.71;45.59;99564.89;2180072;81;32815;-66
2022/08/16 13:34:47;;;;;;;8.75;6.42;;;;;;;29.72;45.63;99561.62;2185656;80;29055;-66
2022/08/16 13:37:49;;;;;;;9.35;6.95;;;;;;;29.72;45.51;99560.23;2185517;81;27783;-66
2022/08/16 13:40:53;;;;;;;6.67;6.17;;;;;;;29.68;44.85;99560.35;2170266;81;28640;-65
2022/08/16 13:43:57;;;;;;;6.75;6.15;;;;;;;29.66;45.27;99556.45;2185303;81;31082;-67
2022/08/16 13:46:59;;;;;;;5.57;5.00;;;;;;;29.67;45.24;99549.86;2185311;80;33002;-66
2022/08/16 13:50:04;;;;;;;5.45;4.25;;;;;;;29.70;45.77;99553.53;2169935;81;29237;-66
2022/08/16 13:53:06;;;;;;;5.60;5.10;;;;;;;29.69;45.28;99542.73;2185479;80;27703;-66
2022/08/16 13:56:09;;;;;;;6.90;5.85;;;;;;;29.68;44.62;99541.89;2170264;81;28706;-67
2022/08/16 13:59:13;;;;;;;7.20;5.87;;;;;;;29.67;44.95;99541.58;2185386;81;31013;-67
2022/08/16 14:02:16;;;;;;;4.05;3.00;;;;;;;29.65;45.27;99540.09;2184920;81;33077;-66
2022/08/16 14:05:19;;;;;;;6.03;5.42;;;;;;;29.64;45.76;99541.16;2185224;81;29052;-68
2022/08/16 14:08:22;;;;;;;6.65;5.90;;;;;;;29.62;45.23;99535.86;2184974;81;27836;-67
2022/08/16 14:11:25;;;;;;;6.45;5.92;;;;;;;29.60;45.13;99532.47;2185223;80;28657;-67
2022/08/16 14:14:29;;;;;;;8.90;5.80;;;;;;;29.63;44.84;99538.08;2185284;80;31047;-67
2022/08/16 14:17:31;;;;;;;6.20;5.60;;;;;;;29.65;45.42;99534.56;2185403;80;32952;-68
2022/08/16 14:20:33;;;;;;;5.55;4.83;;;;;;;29.62;44.95;99530.89;2145349;81;29205;-66
2022/08/16 14:23:35;;;;;;;5.67;5.05;;;;;;;29.62;45.58;99533.66;2185255;80;27711;-67
2022/08/16 14:26:37;;;;;;;4.08;3.70;;;;;;;29.59;45.71;99534.09;2185189;80;28631;-66
2022/08/16 14:29:39;;;;;;;9.15;6.75;;;;;;;29.50;45.71;99532.11;2145431;81;31013;-67